createdAt,value
2023-05-22T00:01:39.418Z,8.10
2023-05-22T00:05:43.077Z,7.93
2023-05-22T00:09:47.969Z,7.10
2023-05-22T00:13:51.607Z,7.50
2023-05-22T00:17:55.403Z,7.33
2023-05-22T00:21:58.948Z,6.60
2023-05-22T00:26:04.463Z,7.83
2023-05-22T00:30:09.687Z,8.27
2023-05-22T00:34:13.197Z,8.53
2023-05-22T00:38:30.665Z,11.27
2023-05-22T00:42:35.563Z,9.40
2023-05-22T00:46:39.365Z,9.00
2023-05-22T00:50:43.178Z,8.43
2023-05-22T00:54:48.023Z,8.00
2023-05-22T00:58:52.960Z,9.23
2023-05-22T01:02:57.088Z,8.77
2023-05-22T01:07:03.123Z,8.70
2023-05-22T01:11:12.956Z,7.83
2023-05-22T01:15:25.467Z,7.30
2023-05-22T01:19:50.701Z,7.87
2023-05-22T01:24:28.131Z,7.20
2023-05-22T01:28:42.705Z,7.10
2023-05-22T01:32:49.238Z,7.20
2023-05-22T01:36:54.589Z,7.87
2023-05-22T01:40:58.992Z,6.90
2023-05-22T01:45:03.055Z,6.37
2023-05-22T01:49:09.212Z,7.50
2023-05-22T01:53:19.926Z,7.93
2023-05-22T01:57:30.049Z,7.57
2023-05-22T02:01:36.036Z,7.53
2023-05-22T02:05:42.120Z,7.87
2023-05-22T02:09:47.648Z,7.47
2023-05-22T02:13:51.510Z,8.00
2023-05-22T02:17:55.092Z,7.57
2023-05-22T02:22:00.209Z,8.17
2023-05-22T02:26:03.718Z,10.07
2023-05-22T02:30:08.821Z,8.80
2023-05-22T02:34:12.263Z,8.50
2023-05-22T02:38:17.300Z,9.13
2023-05-22T02:42:21.573Z,8.67
2023-05-22T02:46:25.363Z,9.00
2023-05-22T02:50:29.436Z,8.93
2023-05-22T02:54:34.480Z,7.70
2023-05-22T02:58:38.169Z,8.13
2023-05-22T03:02:43.703Z,8.47
2023-05-22T03:06:47.218Z,9.53
2023-05-22T03:10:52.176Z,9.37
2023-05-22T03:14:55.617Z,8.87
2023-05-22T03:19:09.659Z,8.30
2023-05-22T03:23:13.851Z,8.47
2023-05-22T03:27:19.852Z,8.60
2023-05-22T03:31:26.293Z,7.03
2023-05-22T03:35:40.057Z,7.63
2023-05-22T03:39:43.724Z,7.60
2023-05-22T03:44:14.419Z,7.33
2023-05-22T03:48:19.189Z,6.90
2023-05-22T03:52:23.653Z,6.63
2023-05-22T03:56:27.249Z,6.73
2023-05-22T04:00:32.102Z,7.47
2023-05-22T04:04:38.687Z,6.43
2023-05-22T04:08:42.443Z,6.67
2023-05-22T04:12:46.150Z,5.73
2023-05-22T04:16:51.592Z,5.50
2023-05-22T04:20:55.234Z,5.40
2023-05-22T04:25:00.358Z,6.07
2023-05-22T04:29:03.984Z,5.95
2023-05-22T04:33:10.776Z,5.63
2023-05-22T04:37:15.266Z,5.38
2023-05-22T04:41:21.209Z,4.93
2023-05-22T04:45:29.094Z,4.85
2023-05-22T04:49:36.446Z,4.95
2023-05-22T04:53:39.925Z,5.15
2023-05-22T04:57:45.372Z,4.35
2023-05-22T05:01:50.574Z,4.88
2023-05-22T05:05:56.914Z,4.63
2023-05-22T05:10:01.069Z,4.68
2023-05-22T05:14:04.705Z,5.07
2023-05-22T05:18:09.348Z,4.72
2023-05-22T05:22:15.405Z,4.88
2023-05-22T05:26:19.378Z,4.80
2023-05-22T05:30:23.319Z,5.07
2023-05-22T05:34:45.576Z,5.20
2023-05-22T05:39:13.894Z,4.95
2023-05-22T05:43:17.676Z,5.10
2023-05-22T05:47:24.135Z,5.57
2023-05-22T05:51:31.253Z,5.05
2023-05-22T05:55:36.659Z,5.03
2023-05-22T05:59:41.086Z,5.35
2023-05-22T06:04:17.201Z,5.15
2023-05-22T06:08:28.405Z,5.40
2023-05-22T06:12:33.810Z,5.60
2023-05-22T06:16:37.406Z,5.97
2023-05-22T06:20:41.322Z,6.30
2023-05-22T06:24:45.070Z,5.57
2023-05-22T06:28:54.626Z,5.17
2023-05-22T06:33:00.495Z,5.13
2023-05-22T06:37:04.694Z,5.00
2023-05-22T06:41:15.129Z,4.80
2023-05-22T06:45:20.323Z,5.07
2023-05-22T06:49:44.040Z,5.93
2023-05-22T06:53:48.060Z,5.90
2023-05-22T06:57:57.591Z,5.73
2023-05-22T07:02:04.975Z,6.10
2023-05-22T07:06:28.862Z,5.80
2023-05-22T07:10:32.422Z,6.30
2023-05-22T07:14:36.355Z,6.03
2023-05-22T07:18:42.109Z,5.93
2023-05-22T07:22:45.583Z,6.30
2023-05-22T07:26:49.901Z,6.73
2023-05-22T07:30:54.151Z,5.73
2023-05-22T07:35:00.534Z,5.97
2023-05-22T07:39:05.226Z,5.87
2023-05-22T07:43:12.833Z,6.17
2023-05-22T07:47:17.097Z,5.90
2023-05-22T07:51:22.157Z,5.77
2023-05-22T07:55:28.006Z,5.77
2023-05-22T07:59:33.828Z,6.20
2023-05-22T08:03:37.739Z,6.30
2023-05-22T08:07:42.829Z,5.50
2023-05-22T08:11:46.445Z,6.10
2023-05-22T08:15:49.853Z,5.80
2023-05-22T08:19:53.762Z,5.67
2023-05-22T08:23:59.031Z,5.97
2023-05-22T08:28:02.524Z,5.67
2023-05-22T08:32:06.905Z,6.27
2023-05-22T08:36:10.467Z,5.70
2023-05-22T08:40:16.493Z,6.73
2023-05-22T08:44:21.169Z,6.60
2023-05-22T08:48:26.002Z,6.13
2023-05-22T08:52:34.480Z,6.13
2023-05-22T08:56:53.005Z,7.30
2023-05-22T09:01:00.858Z,6.83
2023-05-22T09:05:05.533Z,6.30
2023-05-22T09:09:10.715Z,6.10
2023-05-22T09:13:26.846Z,7.23
2023-05-22T09:17:30.481Z,6.83
2023-05-22T09:21:34.160Z,6.57
2023-05-22T09:25:37.765Z,6.40
2023-05-22T09:29:53.769Z,5.83
2023-05-22T09:33:57.533Z,6.87
2023-05-22T09:38:01.439Z,6.37
2023-05-22T09:42:06.270Z,5.70
2023-05-22T09:46:11.358Z,6.13
2023-05-22T09:50:14.805Z,6.23
2023-05-22T09:54:20.250Z,6.07
2023-05-22T09:58:27.272Z,6.33
2023-05-22T10:02:33.827Z,5.60
2023-05-22T10:06:38.525Z,6.20
2023-05-22T10:10:46.921Z,6.57
2023-05-22T10:14:50.569Z,6.40
2023-05-22T10:18:56.439Z,5.47
2023-05-22T10:23:04.148Z,6.07
2023-05-22T10:27:07.851Z,5.63
2023-05-22T10:31:26.593Z,5.23
2023-05-22T10:36:02.662Z,5.80
2023-05-22T10:40:11.026Z,6.50
2023-05-22T10:44:14.744Z,4.73
2023-05-22T10:48:23.482Z,4.70
2023-05-22T10:52:28.676Z,5.10
2023-05-22T10:56:37.029Z,5.30
2023-05-22T11:00:41.329Z,4.73
2023-05-22T11:04:45.055Z,4.77
2023-05-22T11:08:51.611Z,5.47
2023-05-22T11:13:04.735Z,5.30
2023-05-22T11:17:08.392Z,5.40
2023-05-22T11:21:13.808Z,5.50
2023-05-22T11:25:21.495Z,5.37
2023-05-22T11:29:25.832Z,5.77
2023-05-22T11:33:29.785Z,5.10
2023-05-22T11:37:33.727Z,5.83
2023-05-22T11:41:38.764Z,5.27
2023-05-22T11:45:42.233Z,5.63
2023-05-22T11:49:46.127Z,4.73
2023-05-22T11:53:49.916Z,5.50
2023-05-22T11:57:56.818Z,4.80
2023-05-22T12:02:00.530Z,5.37
2023-05-22T12:06:04.432Z,5.63
2023-05-22T12:10:08.540Z,5.63
2023-05-22T12:14:13.656Z,5.67
2023-05-22T12:18:19.965Z,5.53
2023-05-22T12:22:26.447Z,5.10
2023-05-22T12:26:30.105Z,5.10
2023-05-22T12:30:43.119Z,4.50
2023-05-22T12:34:47.978Z,4.40
2023-05-22T12:38:52.020Z,5.40
2023-05-22T12:42:55.552Z,5.40
2023-05-22T12:47:00.563Z,5.17
2023-05-22T12:51:04.006Z,5.30
2023-05-22T12:55:08.782Z,5.60
2023-05-22T12:59:12.194Z,5.10
2023-05-22T13:03:18.369Z,5.50
2023-05-22T13:07:21.942Z,5.53
2023-05-22T13:11:26.755Z,5.30
2023-05-22T13:15:31.603Z,4.80
2023-05-22T13:19:36.715Z,5.10
2023-05-22T13:23:40.517Z,5.03
2023-05-22T13:27:44.025Z,4.97
2023-05-22T13:31:47.728Z,5.15
2023-05-22T13:35:52.755Z,5.43
2023-05-22T13:39:56.478Z,5.20
2023-05-22T13:43:59.929Z,5.60
2023-05-22T13:48:03.735Z,5.10
2023-05-22T13:52:08.810Z,5.30
2023-05-22T13:56:12.278Z,4.43
2023-05-22T14:00:16.565Z,5.73
2023-05-22T14:04:21.221Z,4.93
2023-05-22T14:08:26.387Z,5.60
2023-05-22T14:12:30.051Z,5.60
2023-05-22T14:16:33.525Z,5.50
2023-05-22T14:20:37.086Z,5.37
2023-05-22T14:24:42.135Z,6.17
2023-05-22T14:28:45.643Z,5.70
2023-05-22T14:32:49.202Z,5.47
2023-05-22T14:36:52.616Z,6.07
2023-05-22T14:40:57.531Z,6.00
2023-05-22T14:45:00.952Z,5.70
2023-05-22T14:49:04.843Z,5.73
2023-05-22T14:53:08.333Z,6.67
2023-05-22T14:57:14.300Z,6.00
2023-05-22T15:01:17.926Z,5.23
2023-05-22T15:05:22.914Z,6.60
2023-05-22T15:09:26.679Z,5.80
2023-05-22T15:13:31.792Z,6.87
2023-05-22T15:17:35.407Z,5.87
2023-05-22T15:21:39.049Z,6.10
2023-05-22T15:25:43.730Z,6.47
2023-05-22T15:29:48.641Z,5.70
2023-05-22T15:33:52.263Z,6.13
2023-05-22T15:37:55.686Z,6.50
2023-05-22T15:42:06.283Z,6.30
2023-05-22T15:46:14.738Z,5.70
2023-05-22T15:50:18.419Z,5.57
2023-05-22T15:54:21.840Z,5.73
2023-05-22T15:58:25.598Z,5.43
2023-05-22T16:02:30.586Z,5.63
2023-05-22T16:06:34.199Z,5.73
2023-05-22T16:10:37.944Z,5.43
2023-05-22T16:14:41.954Z,5.20
2023-05-22T16:18:47.010Z,6.00
2023-05-22T16:22:50.580Z,17.73
2023-05-22T16:26:54.298Z,25.43
2023-05-22T16:30:57.790Z,5.90
2023-05-22T16:35:02.995Z,4.70
2023-05-22T16:39:06.650Z,4.67
2023-05-22T16:43:11.437Z,4.27
2023-05-22T16:47:15.009Z,4.50
2023-05-22T16:51:20.180Z,4.30
2023-05-22T16:55:23.722Z,4.60
2023-05-22T16:59:27.403Z,3.63
2023-05-22T17:03:30.930Z,3.57
2023-05-22T17:07:36.189Z,3.97
2023-05-22T17:11:39.730Z,3.17
2023-05-22T17:15:43.475Z,2.40
2023-05-22T17:19:47.478Z,2.20
2023-05-22T17:23:52.483Z,2.50
2023-05-22T17:27:56.870Z,2.03
2023-05-22T17:32:00.581Z,2.10
2023-05-22T17:36:04.262Z,1.73
2023-05-22T17:40:10.995Z,2.83
2023-05-22T17:44:14.476Z,2.20
2023-05-22T17:48:21.670Z,2.67
2023-05-22T17:52:25.328Z,2.07
2023-05-22T17:56:30.401Z,2.43
2023-05-22T18:00:34.033Z,2.97
2023-05-22T18:04:38.064Z,2.77
2023-05-22T18:08:41.475Z,3.27
2023-05-22T18:12:46.697Z,3.23
2023-05-22T18:16:50.386Z,3.67
2023-05-22T18:20:53.957Z,3.77
2023-05-22T18:24:57.849Z,3.60
2023-05-22T18:29:02.955Z,4.30
2023-05-22T18:33:06.483Z,4.00
2023-05-22T18:37:10.073Z,4.17
2023-05-22T18:41:13.778Z,4.10
2023-05-22T18:45:18.864Z,3.90
2023-05-22T18:49:22.559Z,4.50
2023-05-22T18:53:27.446Z,4.20
2023-05-22T18:57:30.980Z,4.87
2023-05-22T19:01:37.252Z,4.67
2023-05-22T19:05:41.255Z,4.50
2023-05-22T19:09:44.719Z,4.97
2023-05-22T19:13:48.858Z,5.47
2023-05-22T19:17:54.251Z,4.33
2023-05-22T19:21:57.893Z,5.13
2023-05-22T19:26:01.621Z,5.77
2023-05-22T19:30:05.839Z,5.37
2023-05-22T19:34:10.852Z,5.10
2023-05-22T19:38:14.398Z,5.87
2023-05-22T19:42:18.084Z,6.40
2023-05-22T19:46:22.488Z,5.77
2023-05-22T19:50:27.827Z,5.20
2023-05-22T19:54:31.421Z,5.70
2023-05-22T19:58:35.087Z,5.03
2023-05-22T20:02:38.673Z,4.67
2023-05-22T20:06:45.362Z,5.77
2023-05-22T20:10:49.072Z,5.50
2023-05-22T20:14:55.150Z,5.93
2023-05-22T20:18:59.768Z,6.17
2023-05-22T20:23:04.910Z,5.60
2023-05-22T20:27:08.509Z,5.90
2023-05-22T20:31:11.974Z,5.63
2023-05-22T20:35:18.915Z,5.50
2023-05-22T20:39:23.979Z,5.70
2023-05-22T20:43:30.195Z,5.07
2023-05-22T20:47:35.305Z,5.30
2023-05-22T20:51:39.888Z,5.03
2023-05-22T20:55:44.769Z,5.13
2023-05-22T20:59:48.437Z,5.33
2023-05-22T21:03:52.227Z,5.03
2023-05-22T21:07:56.102Z,5.70
2023-05-22T21:12:01.125Z,5.27
2023-05-22T21:16:04.747Z,5.27
2023-05-22T21:20:09.055Z,5.13
2023-05-22T21:24:12.814Z,5.03
2023-05-22T21:28:17.968Z,5.50
2023-05-22T21:32:21.504Z,4.90
2023-05-22T21:36:25.224Z,5.10
2023-05-22T21:40:28.737Z,5.00
2023-05-22T21:44:34.026Z,5.20
2023-05-22T21:48:37.619Z,5.10
2023-05-22T21:52:41.085Z,5.23
2023-05-22T21:56:44.619Z,5.43
2023-05-22T22:00:49.515Z,4.97
2023-05-22T22:04:53.174Z,5.10
2023-05-22T22:08:58.908Z,5.30
2023-05-22T22:13:03.697Z,4.97
2023-05-22T22:17:09.372Z,5.60
2023-05-22T22:21:12.905Z,5.43
2023-05-22T22:25:17.487Z,4.70
2023-05-22T22:29:21.040Z,4.93
2023-05-22T22:33:26.382Z,4.80
2023-05-22T22:37:29.828Z,5.90
2023-05-22T22:41:33.473Z,5.90
2023-05-22T22:45:37.051Z,5.40
2023-05-22T22:49:42.508Z,5.50
2023-05-22T22:53:46.060Z,5.47
2023-05-22T22:57:51.204Z,5.30
2023-05-22T23:01:54.770Z,6.13
2023-05-22T23:05:59.818Z,5.60
2023-05-22T23:10:03.363Z,5.53
2023-05-22T23:14:08.476Z,5.93
2023-05-22T23:18:14.113Z,7.30
2023-05-22T23:22:19.391Z,7.13
2023-05-22T23:26:23.033Z,6.23
2023-05-22T23:30:26.477Z,5.57
2023-05-22T23:34:30.051Z,6.27
2023-05-22T23:38:34.956Z,6.23
2023-05-22T23:42:39.650Z,6.40
2023-05-22T23:46:44.058Z,6.20
2023-05-22T23:50:47.653Z,7.27
2023-05-22T23:54:52.572Z,10.13
2023-05-22T23:58:56.395Z,8.80
